Dauntless Aviation
Airports Europe Spain
LERL
CQM

Ciudad Real Central Airport

Ciudad Real, SPAIN

Airport Info
Suggest Updated Information for this Airport

Location

Latitude / Longitude: 38°51'23"N / 3°58'12"W
  38°51.384'N / 3°58.2'W
  38.8564 / -3.9700
Satellite photo at:
Airport distance calculator
From:
Weather Reports

METAR

TAF

LEAO
12.4nm NE
TAF LEAO 241700Z 2418/2503 VRB04KT 9999 SCT030 TEMPO 2418/2419 4000 SHRA FEW025CB PROB30 TEMPO 2418/2419 3000 TSRA SCT020CB
Safelog

 

Dauntless Aviation

© 2007-2017 Dauntless Aviation, all rights reserved
Information provided via PilotNav comes from a variety of official and unofficial data sources. As errors are possible, do not use PilotNav for primary flight planning purposes. Verify any information that you receive via PilotNav with current and canonical charts and other official documents. The material in this database is subject to database copyrights held by Dauntless Aviation and may not be copied without the express permission of Dauntless Aviation - licenses for use of part of all of this data are available for purchase; enquire via the Dauntless Aviation helpdesk. A number of mechanisms and markers exist in the database to protect against and identify infringement / copyright. Automated queries against this website are stictly prohibited, and all activity is logged and analyzed.